Riverside, CA

4:30 AM PDT on September 22, 2014 (GMT -0700)
Ontario International | Change Station
CLOSE
Current Station
Airport
Location: Ontario,
Elevation: 942 ft
Nearby Weather Stations

Elev 942 ft 34.06 °N, 117.60 °W | Updated 37 minutes ago

Clear
Clear
64 °F
Feels Like 64 °F
N
0
Wind Variable Wind from North

Today
High -- | Low -- °F
--% Chance of Precip.
Yesterday
High -- | Low -- °F
Precip. -- in
6:37 AM 6:46 PM
Waning Crescent, 3% visible
Pressure 29.92 in
Visibility 10.0 miles
Clouds Clear
Dew Point 58 °F
Humidity 80%
Rainfall 0.00 in
Snow Depth 0 in , 0 in , 0 in
UV 0 out of 12
Pollen 6.60 out of 12
Ozone Good
PM2.5 Moderate
Flu Activity Not available.
METAR KONT 221053Z 00000KT 10SM CLR 18/14 A2996 RMK AO2 SLP132 T01780144

More Conditions Fewer Conditions

Pressure 29.92 in
Visibility 10.0 miles
Clouds Clear
Dew Point 58 °F
Humidity 80%
Rainfall 0.00 in
Snow Depth 0 in , 0 in , 0 in
UV 0 out of 12
Pollen 6.60 out of 12
Ozone Good
PM2.5 Moderate
Flu Activity Not available.
METAR KONT 221053Z 00000KT 10SM CLR 18/14 A2996 RMK AO2 SLP132 T01780144

More Conditions Fewer Conditions

10-Day Weather Forecast

Almanac

Astronomy

Sep. 22, 2014 Rise Set
Actual Time 6:37 AM PDT 6:46 PM PDT
Civil Twilight 6:12 AM PDT 7:11 PM PDT
Nautical Twilight 5:43 AM PDT 7:40 PM PDT
Astronomical Twilight 5:14 AM PDT 8:09 PM PDT
Moon 5:13 AM PDT 5:54 PM PDT
Length of Visible Light 12h 58m
Length of Day
12h 08m
Tomorrow will be 2m 6s shorter.
Waning Crescent, 3% of the Moon is Illuminated
Today
Waning Crescent
Sep 24
New
Oct 1
First Quarter
Oct 8
Full
Oct 15
Last Quarter

Today's Extremes

State Highs State Lows

Community

WunderPhotos

Upload Photos

1,755,409 photos uploaded!

Nearby

Air Quality

  Air Quality AQ Index Pollutant
Yesterday Good
PM10
Yesterday Good
OZONE
Current Moderate
PM2.5
Current Good
OZONE
Monday Good
PM10
Monday Moderate
OZONE
Monday Good
CO
Monday Good
NO2

Snow Depth

Station Depth Elevation
Monitor Pass 0 in 8350 ft
Rubicon #2 0 in 7500 ft
Heavenly Valley 0 in 8850 ft
Spratt Creek 1 in 6200 ft
Sonora Pass 0 in 8800 ft

Earthquake Activity

City Distance Mag. Time & Date
Borrego Springs, California 78 miles 2.6 7:34 AM PDT
2014-09-21
Aguanga, California 49 miles 2.5 1:38 AM PDT
2014-09-19
Minimum magnitude displayed is 2.5.

Coastal Water Temperatures

Place Temperature
No Stations Reporting

Nearby Weather Stations